Time;durP1;ratioP1;P1;durP2;ratioP2;P2;SDS_P1;SDS_P2;PMS_P1;PMS_P2;Temp;Humidity;BMP_temperature;BMP_pressure;BME280_temperature;BME280_humidity;BME280_pressure;Samples;Min_cycle;Max_cycle;Signal;HPM_P1;HPM_P2
2022/03/04 00:02:06;;;;;;;8.93;3.40;;;22.70;39.70;;;;;;5035937;28;20041;-83
2022/03/04 00:08:16;;;;;;;6.47;2.67;;;21.20;38.90;;;;;;4937335;29;20055;-83
2022/03/04 00:13:16;;;;;;;7.00;3.13;;;22.10;39.50;;;;;;5053000;28;20045;-83
2022/03/04 00:15:50;;;;;;;6.25;2.88;;;22.10;39.80;;;;;;5036038;28;20048;-83
2022/03/04 00:22:14;;;;;;;5.38;2.67;;;21.10;39.00;;;;;;5036874;28;20053;-82
2022/03/04 00:24:42;;;;;;;7.45;3.05;;;23.50;40.20;;;;;;5022272;23;20049;-83
2022/03/04 00:27:08;;;;;;;7.53;3.10;;;22.10;39.50;;;;;;5015682;28;20128;-82
2022/03/04 00:29:43;;;;;;;6.22;2.78;;;22.20;39.60;;;;;;5032250;28;20164;-82
2022/03/04 00:32:19;;;;;;;6.63;3.00;;;22.20;39.80;;;;;;5031649;28;20507;-82
2022/03/04 00:34:44;;;;;;;5.03;2.35;;;22.20;39.50;;;;;;5228753;22;20508;-82
2022/03/04 00:37:36;;;;;;;6.28;2.53;;;23.60;40.50;;;;;;5033206;28;20057;-83
2022/03/04 00:40:24;;;;;;;6.33;2.67;;;22.70;40.70;;;;;;5035119;28;20116;-83
2022/03/04 00:43:24;;;;;;;4.65;2.40;;;22.20;39.50;;;;;;5019347;28;20675;-83
2022/03/04 00:46:13;;;;;;;7.05;3.05;;;22.20;39.60;;;;;;5033800;28;20049;-82
2022/03/04 00:48:39;;;;;;;6.32;2.50;;;22.40;39.60;;;;;;5034513;28;20507;-82
2022/03/04 00:51:12;;;;;;;7.13;2.72;;;22.20;39.50;;;;;;5033827;28;20049;-83
2022/03/04 00:53:38;;;;;;;7.72;2.92;;;22.20;39.60;;;;;;5034573;28;20041;-82
2022/03/04 00:59:58;;;;;;;5.07;2.38;;;23.00;40.00;;;;;;4998335;28;20094;-83
2022/03/04 01:03:10;;;;;;;5.22;2.47;;;22.20;39.50;;;;;;5017374;28;20114;-83
2022/03/04 01:05:45;;;;;;;5.32;2.15;;;22.30;39.70;;;;;;5033422;28;20408;-82
2022/03/04 01:13:21;;;;;;;5.72;2.50;;;22.10;39.50;;;;;;5029628;28;20050;-82
2022/03/04 01:15:50;;;;;;;5.40;2.00;;;22.90;40.00;;;;;;5014386;28;20045;-81
2022/03/04 01:20:51;;;;;;;5.00;2.05;;;22.00;39.50;;;;;;5172560;22;20056;-82
2022/03/04 01:23:46;;;;;;;5.30;2.22;;;22.70;40.20;;;;;;5033445;28;20083;-82
2022/03/04 01:29:56;;;;;;;5.20;2.00;;;22.10;39.60;;;;;;5050858;28;20040;-82
2022/03/04 01:32:57;;;;;;;5.68;2.13;;;22.00;39.90;;;;;;5033878;28;20530;-82
2022/03/04 01:35:22;;;;;;;4.60;1.83;;;21.40;39.30;;;;;;5029643;28;20111;-82
2022/03/04 01:37:55;;;;;;;4.22;2.00;;;21.80;39.70;;;;;;5033336;28;20048;-82
2022/03/04 01:41:08;;;;;;;4.82;2.05;;;22.00;40.20;;;;;;5032688;28;20075;-83
2022/03/04 01:49:53;;;;;;;4.15;1.80;;;22.00;39.60;;;;;;5030387;28;20057;-82
2022/03/04 01:52:37;;;;;;;4.68;2.20;;;21.90;39.80;;;;;;4997639;28;20083;-81
2022/03/04 01:55:51;;;;;;;5.53;2.20;;;22.00;40.00;;;;;;5015707;28;20049;-81
2022/03/04 01:58:32;;;;;;;5.13;2.05;;;21.50;39.70;;;;;;5013608;28;20044;-82
2022/03/04 02:01:00;;;;;;;4.18;1.85;;;21.20;39.80;;;;;;5014152;28;20055;-82
2022/03/04 02:03:26;;;;;;;5.15;1.98;;;23.10;40.50;;;;;;5013120;28;20049;-82
2022/03/04 02:05:55;;;;;;;3.28;1.58;;;21.90;39.70;;;;;;5031509;28;20045;-82
2022/03/04 02:08:30;;;;;;;4.28;1.63;;;22.90;40.30;;;;;;5013826;28;20051;-82
2022/03/04 02:11:07;;;;;;;5.60;2.00;;;21.90;40.50;;;;;;5013316;28;20153;-82
2022/03/04 02:17:18;;;;;;;3.83;1.60;;;20.70;39.30;;;;;;4960755;28;20113;-81
2022/03/04 02:19:59;;;;;;;3.95;1.50;;;22.40;40.30;;;;;;5017767;28;20492;-81
2022/03/04 02:22:57;;;;;;;4.80;1.80;;;22.00;40.20;;;;;;5016740;28;20041;-81
2022/03/04 02:25:23;;;;;;;4.20;1.80;;;21.80;39.60;;;;;;5017314;28;20059;-82
2022/03/04 02:28:01;;;;;;;3.85;1.55;;;22.30;39.90;;;;;;5017386;28;20041;-82
2022/03/04 02:30:48;;;;;;;3.35;1.60;;;22.00;40.40;;;;;;5001166;28;20156;-82
2022/03/04 02:33:16;;;;;;;3.80;1.73;;;21.40;39.40;;;;;;5016968;28;20393;-82
2022/03/04 02:38:44;;;;;;;3.58;1.55;;;22.00;39.70;;;;;;4960600;28;20055;-82
2022/03/04 02:41:27;;;;;;;3.15;1.38;;;21.90;39.90;;;;;;4957982;28;20047;-81
2022/03/04 02:44:15;;;;;;;3.70;1.25;;;23.10;40.40;;;;;;4996966;28;20532;-82
2022/03/04 02:50:20;;;;;;;3.60;1.58;;;22.00;39.70;;;;;;4916628;29;20051;-81
2022/03/04 04:40:52;;;;;;;2.85;1.17;;;21.90;39.50;;;;;;4992851;28;20100;-82
2022/03/04 05:07:25;;;;;;;1.95;0.90;;;21.80;39.30;;;;;;4992000;28;20121;-82
2022/03/04 05:41:53;;;;;;;3.13;1.10;;;21.80;39.60;;;;;;5009709;28;20081;-81
2022/03/04 05:47:34;;;;;;;2.25;1.00;;;20.00;38.80;;;;;;5008761;28;20544;-81
2022/03/04 05:50:13;;;;;;;2.10;0.90;;;22.50;40.30;;;;;;5003557;23;20750;-82
2022/03/04 05:53:01;;;;;;;2.13;0.98;;;23.00;40.60;;;;;;4990942;28;20405;-82
2022/03/04 05:55:26;;;;;;;2.47;0.90;;;21.10;39.30;;;;;;4964914;28;20069;-82
2022/03/04 06:00:36;;;;;;;1.88;0.93;;;21.90;39.60;;;;;;4995809;23;20046;-82
2022/03/04 06:03:02;;;;;;;1.60;0.75;;;22.00;39.70;;;;;;4974615;28;20054;-81
2022/03/04 06:05:28;;;;;;;2.30;0.90;;;22.00;39.70;;;;;;4990912;28;20494;-81
2022/03/04 06:07:54;;;;;;;2.00;0.90;;;22.00;40.40;;;;;;4990456;28;20062;-82
2022/03/04 06:10:20;;;;;;;1.75;0.80;;;22.00;39.70;;;;;;4990762;28;20065;-81
2022/03/04 06:12:49;;;;;;;2.08;0.80;;;22.00;40.30;;;;;;4990570;28;20039;-82
2022/03/04 06:15:15;;;;;;;1.38;0.70;;;22.30;39.70;;;;;;4989652;28;20580;-81
2022/03/04 06:17:47;;;;;;;1.50;0.60;;;22.00;39.60;;;;;;4992359;28;20046;-81
2022/03/04 06:20:13;;;;;;;1.30;0.80;;;22.00;39.60;;;;;;4990876;28;20145;-81
2022/03/04 06:22:41;;;;;;;2.08;0.80;;;23.30;40.30;;;;;;4989867;28;20158;-81
2022/03/04 06:25:11;;;;;;;1.80;0.80;;;22.10;39.60;;;;;;4990339;28;20038;-82
2022/03/04 06:28:00;;;;;;;2.13;0.82;;;22.10;39.60;;;;;;4990401;28;20049;-81
2022/03/04 06:30:27;;;;;;;2.00;0.88;;;22.10;39.60;;;;;;4986418;28;20042;-81
2022/03/04 06:33:30;;;;;;;2.10;0.80;;;22.10;39.60;;;;;;4980056;28;20046;-81
2022/03/04 06:35:39;;;;;;;2.00;0.70;;;22.50;39.80;;;;;;4989283;28;20058;-81
2022/03/04 06:38:22;;;;;;;2.03;0.90;;;22.10;39.50;;;;;;4972072;28;20093;-81
2022/03/04 06:40:48;;;;;;;1.75;0.77;;;22.10;39.50;;;;;;4980133;28;20506;-82
2022/03/04 06:43:48;;;;;;;1.75;0.80;;;22.10;39.50;;;;;;4931220;28;20109;-83
2022/03/04 06:46:18;;;;;;;1.85;0.80;;;21.90;40.20;;;;;;4953431;28;20466;-80
2022/03/04 06:48:50;;;;;;;1.42;0.70;;;21.60;39.40;;;;;;4941928;28;20046;-81
2022/03/04 06:51:53;;;;;;;1.80;0.80;;;22.20;40.00;;;;;;4968525;28;20086;-81
2022/03/04 06:54:21;;;;;;;2.38;1.05;;;22.20;39.60;;;;;;4948968;29;20113;-82
2022/03/04 06:57:02;;;;;;;2.03;0.90;;;22.00;39.60;;;;;;4934074;29;20083;-81
2022/03/04 06:59:39;;;;;;;1.83;0.70;;;22.10;39.70;;;;;;4928898;28;20059;-80
2022/03/04 07:02:06;;;;;;;2.33;0.93;;;20.70;39.10;;;;;;4955151;28;20166;-83
2022/03/04 07:05:05;;;;;;;1.85;0.90;;;23.20;40.40;;;;;;4955587;28;20153;-80
2022/03/04 07:07:44;;;;;;;1.35;0.73;;;22.30;39.50;;;;;;4954334;29;20086;-81
2022/03/04 07:11:04;;;;;;;1.77;0.90;;;22.30;39.60;;;;;;4956699;28;20064;-81
2022/03/04 07:13:53;;;;;;;1.63;0.80;;;21.70;39.20;;;;;;4973757;28;20077;-82
2022/03/04 07:16:20;;;;;;;2.05;0.82;;;22.30;39.50;;;;;;4962201;28;20050;-81
2022/03/04 07:22:08;;;;;;;1.77;0.77;;;22.40;39.50;;;;;;4994671;28;19921;-83
2022/03/04 07:24:52;;;;;;;2.45;0.93;;;22.30;39.40;;;;;;4975375;28;20061;-82
2022/03/04 07:27:35;;;;;;;4.03;1.05;;;21.70;39.50;;;;;;4985231;28;20498;-82
2022/03/04 07:30:18;;;;;;;2.60;0.90;;;21.60;39.00;;;;;;4967470;28;20050;-82
2022/03/04 07:32:50;;;;;;;2.20;0.98;;;20.90;38.70;;;;;;4992469;28;20070;-83
2022/03/04 07:35:17;;;;;;;;;;;22.60;39.80;;;;;;4977074;28;20828;-83
2022/03/04 07:37:58;;;;;;;1.88;0.80;;;22.40;39.30;;;;;;4976134;28;19922;-82
2022/03/04 07:40:24;;;;;;;1.43;0.73;;;22.40;39.60;;;;;;4991773;28;20109;-82
2022/03/04 07:43:24;;;;;;;2.20;1.10;;;23.80;40.20;;;;;;4984912;28;20086;-83
2022/03/04 07:45:53;;;;;;;1.98;0.88;;;22.50;39.40;;;;;;4974355;28;20495;-82
2022/03/04 07:48:19;;;;;;;2.15;1.13;;;22.50;40.10;;;;;;4980288;28;20049;-83
2022/03/04 07:51:12;;;;;;;2.17;1.08;;;23.00;39.90;;;;;;4994890;28;20140;-83
2022/03/04 07:54:18;;;;;;;2.22;1.00;;;22.40;39.30;;;;;;4963199;28;20055;-83
2022/03/04 07:56:50;;;;;;;2.70;1.10;;;22.50;39.40;;;;;;4988395;28;20836;-81
2022/03/04 07:59:45;;;;;;;1.95;1.00;;;23.10;39.80;;;;;;4980638;28;20093;-76
2022/03/04 08:02:44;;;;;;;2.58;1.23;;;22.40;39.20;;;;;;4943133;28;20085;-78
2022/03/04 08:05:19;;;;;;;2.30;1.40;;;22.40;39.60;;;;;;4987329;28;20054;-81
2022/03/04 08:15:45;;;;;;;3.90;2.20;;;22.20;38.70;;;;;;4787437;29;20104;-81
2022/03/04 08:18:25;;;;;;;4.05;2.15;;;23.80;39.70;;;;;;4789074;29;20168;-82
2022/03/04 08:25:00;;;;;;;4.63;2.20;;;21.50;38.00;;;;;;4802693;29;20066;-80
2022/03/04 08:31:17;;;;;;;7.55;4.28;;;21.80;38.10;;;;;;4999284;23;20097;-83
2022/03/04 08:34:10;;;;;;;6.72;3.28;;;22.20;37.30;;;;;;4913757;29;20479;-79
2022/03/04 08:36:51;;;;;;;7.35;4.47;;;22.20;37.50;;;;;;4897014;29;20062;-79
2022/03/04 09:55:33;;;;;;;2.78;1.67;;;20.40;38.10;;;;;;4935361;29;19954;-77
2022/03/04 09:58:44;;;;;;;3.78;2.00;;;21.60;38.70;;;;;;4919269;29;20051;-78
2022/03/04 10:09:34;;;;;;;3.53;1.52;;;20.70;38.20;;;;;;4874161;29;20095;-78
2022/03/04 12:36:38;;;;;;;2.58;1.23;;;22.90;38.50;;;;;;4973606;28;20486;-82
2022/03/04 12:53:22;;;;;;;8.75;3.53;;;23.10;37.30;;;;;;4860466;28;20065;-84
2022/03/04 12:56:13;;;;;;;7.20;2.65;;;24.10;37.60;;;;;;4943085;28;20106;-81
2022/03/04 13:09:34;;;;;;;4.82;2.53;;;21.90;37.20;;;;;;4991754;28;20081;-82
2022/03/04 13:12:47;;;;;;;3.97;2.50;;;22.30;37.70;;;;;;4974584;28;20065;-82
2022/03/04 13:15:19;;;;;;;4.68;2.53;;;22.00;37.60;;;;;;4955701;28;20112;-82
2022/03/04 13:18:15;;;;;;;5.95;2.35;;;22.10;38.00;;;;;;4966747;28;20050;-82
2022/03/04 13:21:24;;;;;;;4.88;2.35;;;21.60;37.50;;;;;;4935968;29;20062;-82
2022/03/04 13:24:33;;;;;;;4.47;2.50;;;21.50;37.50;;;;;;4977453;23;20776;-81
2022/03/04 13:35:28;;;;;;;5.90;3.92;;;22.20;38.20;;;;;;4988080;28;20049;-84
2022/03/04 13:37:59;;;;;;;6.47;3.40;;;21.20;37.40;;;;;;4969852;28;20065;-84
2022/03/04 13:40:37;;;;;;;6.22;4.13;;;22.00;38.10;;;;;;4974712;28;20088;-85
2022/03/04 13:43:36;;;;;;;9.95;5.40;;;22.00;38.00;;;;;;4958477;28;20053;-84
2022/03/04 14:11:23;;;;;;;6.53;3.95;;;22.00;38.20;;;;;;4991187;28;20046;-84
2022/03/04 14:13:48;;;;;;;6.45;4.00;;;21.70;38.00;;;;;;4944952;28;20315;-82
2022/03/04 14:16:17;;;;;;;6.95;4.15;;;21.90;38.50;;;;;;4958975;28;20046;-83
2022/03/04 14:23:10;;;;;;;6.65;4.30;;;21.40;37.80;;;;;;4976261;28;20097;-83
2022/03/04 14:25:52;;;;;;;;;;;21.90;38.10;;;;;;4920682;28;20183;-82
2022/03/04 14:28:20;;;;;;;6.25;4.53;;;21.90;37.90;;;;;;4965434;28;19917;-82
2022/03/04 14:30:50;;;;;;;5.97;3.97;;;21.80;38.00;;;;;;4973668;28;20058;-83
2022/03/04 14:33:18;;;;;;;6.20;3.72;;;21.80;38.00;;;;;;4972776;28;20085;-83
2022/03/04 14:36:07;;;;;;;7.32;3.80;;;20.80;37.90;;;;;;4977748;28;20054;-83
2022/03/04 14:39:12;;;;;;;7.18;3.90;;;21.80;38.00;;;;;;4978796;28;20043;-83
2022/03/04 14:42:21;;;;;;;6.65;4.35;;;20.90;37.60;;;;;;4885507;28;20127;-82
2022/03/04 14:45:06;;;;;;;6.20;4.40;;;21.30;37.50;;;;;;4976988;28;20057;-81
2022/03/04 14:47:33;;;;;;;6.53;3.70;;;21.80;38.30;;;;;;4973640;28;20046;-82
2022/03/04 14:49:58;;;;;;;6.15;3.50;;;21.80;38.10;;;;;;4975281;28;20063;-79
2022/03/04 14:52:24;;;;;;;5.63;3.42;;;21.80;38.10;;;;;;4976547;28;20518;-80
2022/03/04 14:58:01;;;;;;;7.72;3.55;;;21.80;38.30;;;;;;5307970;22;20065;-78
2022/03/04 15:00:29;;;;;;;5.05;2.88;;;21.80;38.40;;;;;;4961029;28;20125;-79
2022/03/04 15:02:56;;;;;;;6.00;4.43;;;21.90;38.60;;;;;;4974631;28;20506;-79
2022/03/04 15:05:31;;;;;;;5.35;3.70;;;22.00;38.30;;;;;;4971814;28;20070;-79
2022/03/04 15:07:57;;;;;;;5.50;3.33;;;22.00;38.30;;;;;;4976851;28;20046;-80
2022/03/04 15:10:26;;;;;;;5.20;3.20;;;22.10;38.50;;;;;;4986656;23;20058;-78
2022/03/04 15:15:39;;;;;;;6.45;3.90;;;22.20;38.40;;;;;;5523775;23;20042;-78
2022/03/04 15:18:06;;;;;;;7.70;4.63;;;22.20;38.10;;;;;;4919330;28;20050;-80
2022/03/04 15:20:38;;;;;;;8.07;5.07;;;22.20;38.00;;;;;;4965021;28;20405;-79
2022/03/04 15:23:06;;;;;;;8.35;5.85;;;22.10;37.90;;;;;;4955506;28;20138;-80
2022/03/04 15:28:32;;;;;;;7.20;5.35;;;22.10;38.10;;;;;;5847257;22;20450;-79
2022/03/04 15:31:22;;;;;;;9.13;5.32;;;22.00;38.30;;;;;;4946957;28;20055;-78
2022/03/04 15:34:08;;;;;;;7.60;5.40;;;21.20;37.40;;;;;;4966666;28;20045;-81
2022/03/04 15:36:46;;;;;;;6.93;4.95;;;22.00;38.50;;;;;;4958957;28;20113;-81
2022/03/04 15:39:36;;;;;;;6.68;4.40;;;21.00;38.00;;;;;;4895227;29;20084;-81
2022/03/04 15:42:21;;;;;;;7.18;5.30;;;21.90;38.20;;;;;;4879725;29;20056;-81
2022/03/04 15:45:27;;;;;;;7.10;5.45;;;20.70;37.50;;;;;;4818011;29;20063;-81
2022/03/04 15:47:54;;;;;;;7.93;5.57;;;21.90;38.00;;;;;;4879932;29;20095;-81
2022/03/04 15:50:20;;;;;;;6.70;4.82;;;21.80;38.00;;;;;;4879896;29;20108;-81
2022/03/04 16:09:11;;;;;;;7.13;4.90;;;21.80;37.70;;;;;;5333779;23;20669;-79
2022/03/04 16:12:33;;;;;;;8.68;5.60;;;21.50;37.50;;;;;;4975419;28;20498;-79
2022/03/04 16:15:11;;;;;;;6.90;4.72;;;21.30;37.20;;;;;;5146537;23;20050;-80
2022/03/04 16:17:38;;;;;;;7.07;5.35;;;21.70;38.00;;;;;;5079091;23;20054;-80
2022/03/04 16:20:14;;;;;;;6.15;4.30;;;22.70;37.70;;;;;;4974527;28;20061;-81
2022/03/04 16:22:43;;;;;;;6.82;4.40;;;21.80;37.60;;;;;;4975218;28;20054;-80
2022/03/04 16:29:05;;;;;;;6.20;4.00;;;21.70;37.60;;;;;;4985060;28;20136;-81
2022/03/04 16:34:56;;;;;;;7.57;4.82;;;21.10;38.00;;;;;;4929654;28;20042;-81
2022/03/04 16:37:33;;;;;;;6.65;4.60;;;21.60;38.40;;;;;;4949363;28;20043;-83
2022/03/04 16:43:31;;;;;;;5.18;3.78;;;21.60;38.70;;;;;;4929687;29;20421;-82
2022/03/04 16:46:16;;;;;;;6.05;4.38;;;21.60;37.70;;;;;;4936122;28;20126;-83
2022/03/04 16:48:44;;;;;;;5.93;4.25;;;22.70;38.40;;;;;;4959887;28;20089;-83
2022/03/04 16:51:11;;;;;;;6.80;4.47;;;22.90;38.40;;;;;;4971833;28;20064;-83
2022/03/04 16:54:35;;;;;;;6.20;4.40;;;21.60;37.70;;;;;;4992386;28;20390;-83
2022/03/04 16:58:02;;;;;;;5.85;4.03;;;21.60;37.60;;;;;;4974429;28;20043;-82
2022/03/04 17:00:44;;;;;;;6.22;4.07;;;21.80;37.90;;;;;;4971076;28;20109;-82
2022/03/04 17:03:37;;;;;;;6.30;4.28;;;23.20;38.70;;;;;;4959555;28;20050;-83
2022/03/04 17:06:18;;;;;;;6.63;4.10;;;20.90;37.20;;;;;;4947196;28;20055;-82
2022/03/04 17:09:02;;;;;;;5.97;3.90;;;19.80;37.30;;;;;;4973992;28;20054;-82
2022/03/04 17:11:34;;;;;;;6.95;3.88;;;21.40;37.70;;;;;;4974528;28;20053;-81
2022/03/04 17:17:40;;;;;;;6.32;3.95;;;21.50;37.70;;;;;;5151630;23;20046;-81
2022/03/04 17:21:01;;;;;;;5.60;3.88;;;21.40;37.70;;;;;;4970966;28;20051;-85
2022/03/04 17:23:59;;;;;;;7.63;3.67;;;21.50;38.50;;;;;;4961589;28;20518;-83
2022/03/04 17:29:49;;;;;;;5.40;3.47;;;21.80;38.50;;;;;;4953101;28;20046;-81
2022/03/04 17:32:26;;;;;;;9.38;4.70;;;21.60;38.20;;;;;;4923092;28;20101;-81
2022/03/04 17:35:00;;;;;;;8.63;5.00;;;21.90;38.30;;;;;;4954882;28;20054;-80
2022/03/04 17:37:26;;;;;;;10.82;5.22;;;21.60;37.80;;;;;;4954623;28;20051;-82
2022/03/04 17:40:37;;;;;;;30.15;11.82;;;21.60;37.90;;;;;;4943211;28;20057;-80
2022/03/04 17:43:15;;;;;;;49.53;19.27;;;21.60;38.30;;;;;;4951537;28;20067;-80
2022/03/04 17:45:50;;;;;;;37.33;13.23;;;22.70;39.20;;;;;;4954007;28;20062;-85
2022/03/04 17:48:30;;;;;;;36.13;11.98;;;21.60;38.40;;;;;;4973859;28;20067;-82
2022/03/04 17:51:11;;;;;;;31.45;12.50;;;21.60;38.20;;;;;;4972779;28;20414;-81
2022/03/04 17:53:39;;;;;;;34.53;13.45;;;21.70;38.20;;;;;;4957455;28;20066;-84
2022/03/04 17:56:08;;;;;;;42.03;13.18;;;21.70;38.40;;;;;;4975535;23;20109;-81
2022/03/04 17:58:45;;;;;;;36.05;12.43;;;21.70;38.50;;;;;;4962481;28;20047;-83
2022/03/04 18:02:05;;;;;;;30.35;12.55;;;21.20;38.10;;;;;;4959081;28;20051;-82
2022/03/04 18:04:31;;;;;;;37.58;15.77;;;20.80;37.60;;;;;;4905705;29;20052;-81
2022/03/04 18:07:28;;;;;;;66.55;26.25;;;22.90;39.00;;;;;;4895274;29;20055;-82
2022/03/04 18:10:03;;;;;;;69.07;25.55;;;21.70;38.20;;;;;;4894163;29;20501;-84
2022/03/04 18:12:29;;;;;;;;;;;21.80;38.30;;;;;;4916595;29;20055;-84
2022/03/04 18:14:56;;;;;;;50.33;21.88;;;22.60;38.80;;;;;;4953268;28;19926;-81
2022/03/04 18:17:42;;;;;;;54.70;22.13;;;23.30;39.10;;;;;;4943321;28;20065;-83
2022/03/04 18:20:11;;;;;;;53.20;19.65;;;20.10;37.80;;;;;;4957375;28;20050;-82
2022/03/04 18:22:49;;;;;;;47.20;20.15;;;21.80;38.90;;;;;;4990622;28;20049;-81
2022/03/04 18:25:14;;;;;;;46.70;19.67;;;21.80;39.20;;;;;;4973814;28;20058;-82
2022/03/04 18:42:31;;;;;;;101.72;38.33;;;21.80;38.80;;;;;;4946393;28;20130;-84
2022/03/04 18:47:59;;;;;;;;;;;21.90;38.80;;;;;;4950358;29;20055;-82
2022/03/04 18:50:58;;;;;;;83.63;30.05;;;20.90;38.20;;;;;;4934826;29;20454;-82
2022/03/04 18:53:45;;;;;;;81.57;29.08;;;22.00;38.80;;;;;;4951993;28;20146;-81
2022/03/04 18:56:33;;;;;;;67.90;26.33;;;23.10;39.40;;;;;;4966916;28;20061;-82
2022/03/04 18:59:31;;;;;;;69.43;26.35;;;21.80;38.70;;;;;;4937958;28;20050;-81
2022/03/04 19:02:36;;;;;;;64.45;27.00;;;21.50;38.50;;;;;;4951034;28;20057;-82
2022/03/04 19:05:28;;;;;;;61.50;25.33;;;21.80;38.60;;;;;;4956830;28;20082;-82
2022/03/04 19:08:19;;;;;;;59.38;24.48;;;21.50;38.50;;;;;;4923505;28;20451;-82
2022/03/04 19:10:45;;;;;;;60.20;24.88;;;21.90;38.70;;;;;;4974648;28;20593;-83
2022/03/04 19:17:44;;;;;;;66.28;25.02;;;21.30;38.60;;;;;;4922604;28;20049;-82
2022/03/04 19:20:11;;;;;;;54.17;22.95;;;21.80;38.60;;;;;;4931744;28;20149;-82
2022/03/04 19:23:15;;;;;;;51.60;22.33;;;22.10;38.90;;;;;;4956848;28;20398;-83
2022/03/04 19:25:41;;;;;;;50.53;21.60;;;22.30;38.80;;;;;;4953550;28;20086;-81
2022/03/04 19:28:06;;;;;;;56.28;22.20;;;22.10;39.60;;;;;;4952164;28;20529;-81
2022/03/04 19:33:06;;;;;;;56.38;21.35;;;22.20;38.70;;;;;;5097347;23;20059;-81
2022/03/04 19:35:33;;;;;;;52.70;21.70;;;23.20;39.30;;;;;;4949155;28;20172;-81
2022/03/04 19:38:11;;;;;;;46.58;19.55;;;20.70;38.30;;;;;;4945316;29;20086;-81
2022/03/04 19:40:55;;;;;;;46.63;19.52;;;22.50;39.00;;;;;;4945203;28;20042;-81
2022/03/04 19:43:22;;;;;;;41.83;18.30;;;23.50;39.60;;;;;;4968302;23;20059;-81
2022/03/04 19:45:51;;;;;;;39.05;17.75;;;22.70;38.90;;;;;;4955419;28;20143;-82
2022/03/04 19:48:17;;;;;;;45.97;18.95;;;22.30;38.70;;;;;;4973401;28;20063;-82
2022/03/04 19:50:49;;;;;;;38.70;16.95;;;22.30;38.70;;;;;;4955891;28;20055;-82
2022/03/04 19:53:19;;;;;;;;;;;22.30;38.70;;;;;;5138167;23;20588;-82
2022/03/04 19:55:56;;;;;;;42.17;17.00;;;22.30;38.60;;;;;;4956124;28;19928;-82
2022/03/04 19:58:31;;;;;;;37.85;16.52;;;22.30;38.70;;;;;;4953004;28;20058;-81
2022/03/04 20:01:15;;;;;;;35.00;15.43;;;23.70;39.50;;;;;;4955846;28;20126;-81
2022/03/04 20:03:40;;;;;;;38.58;15.32;;;22.30;39.50;;;;;;4956157;28;20189;-81
2022/03/04 20:06:43;;;;;;;35.70;14.82;;;23.80;39.50;;;;;;4955686;28;20145;-82
2022/03/04 20:09:20;;;;;;;34.60;14.40;;;22.30;38.60;;;;;;4951756;28;20086;-81
2022/03/04 20:12:08;;;;;;;35.45;15.10;;;22.40;38.60;;;;;;4951051;28;20530;-81
2022/03/04 20:14:49;;;;;;;34.60;14.70;;;22.40;38.70;;;;;;4936764;29;20090;-81
2022/03/04 20:17:14;;;;;;;31.63;13.57;;;22.40;39.00;;;;;;4936739;29;20455;-81
2022/03/04 20:19:57;;;;;;;35.03;14.95;;;21.30;38.10;;;;;;4946800;28;20055;-81
2022/03/04 20:22:42;;;;;;;34.50;14.02;;;21.60;38.40;;;;;;4942128;28;20370;-81
2022/03/04 20:25:08;;;;;;;29.10;13.00;;;23.70;39.50;;;;;;4963181;28;20051;-81
2022/03/04 20:27:52;;;;;;;31.75;13.82;;;22.50;38.80;;;;;;4920566;29;20101;-81
2022/03/04 20:30:34;;;;;;;29.92;11.85;;;22.60;39.00;;;;;;4951369;28;20059;-82
2022/03/04 20:33:02;;;;;;;26.88;12.05;;;22.50;38.60;;;;;;4954795;28;20057;-82
2022/03/04 20:35:31;;;;;;;30.77;12.50;;;22.50;38.60;;;;;;4955823;28;20046;-82
2022/03/04 20:38:00;;;;;;;26.83;11.43;;;22.60;38.70;;;;;;4952556;28;20043;-82
2022/03/04 20:40:25;;;;;;;25.45;11.32;;;22.60;38.70;;;;;;4954018;28;20061;-82
2022/03/04 20:42:56;;;;;;;27.35;11.30;;;23.30;39.10;;;;;;4936587;29;20134;-82
2022/03/04 20:45:22;;;;;;;25.60;10.70;;;22.60;38.70;;;;;;4936538;29;20049;-82
2022/03/04 20:47:49;;;;;;;25.10;11.05;;;22.60;38.70;;;;;;4945838;28;20047;-82
2022/03/04 20:50:36;;;;;;;23.83;11.27;;;23.50;39.10;;;;;;4955947;28;20400;-82
2022/03/04 20:53:02;;;;;;;25.88;10.63;;;22.70;38.70;;;;;;4949207;28;20054;-82
2022/03/04 20:55:57;;;;;;;22.35;9.82;;;22.70;38.70;;;;;;4936254;29;20047;-82
2022/03/04 21:02:08;;;;;;;23.25;10.13;;;22.70;38.90;;;;;;4932102;29;20073;-82
2022/03/04 21:04:43;;;;;;;23.63;9.70;;;22.70;38.60;;;;;;4936195;29;20057;-82
2022/03/04 21:07:19;;;;;;;23.10;9.50;;;24.20;39.50;;;;;;4936123;29;20287;-82
2022/03/04 21:09:46;;;;;;;21.80;9.70;;;22.80;38.60;;;;;;4952519;28;20055;-82
2022/03/04 21:12:11;;;;;;;19.25;9.20;;;23.10;38.70;;;;;;4939628;28;20050;-83
2022/03/04 21:14:40;;;;;;;20.95;8.82;;;22.80;38.60;;;;;;4971146;28;20066;-82
2022/03/04 21:17:06;;;;;;;18.92;8.32;;;22.80;38.50;;;;;;4956169;28;20475;-82
2022/03/04 21:19:43;;;;;;;19.10;8.45;;;24.10;39.20;;;;;;4953915;28;20105;-82
2022/03/04 21:22:09;;;;;;;17.42;7.93;;;22.80;38.50;;;;;;4934616;29;20477;-82
2022/03/04 21:24:35;;;;;;;19.50;7.95;;;24.20;39.30;;;;;;4936019;28;20141;-82
2022/03/04 21:27:06;;;;;;;19.23;7.88;;;22.80;38.60;;;;;;4948870;28;20126;-82
2022/03/04 21:30:01;;;;;;;21.25;7.57;;;22.80;38.70;;;;;;4934940;28;20139;-82
2022/03/04 21:32:46;;;;;;;16.58;7.28;;;22.30;38.20;;;;;;4908954;29;20047;-82
2022/03/04 21:35:12;;;;;;;16.98;6.88;;;22.60;38.40;;;;;;4936394;29;20055;-84
2022/03/04 21:37:41;;;;;;;17.25;7.60;;;22.90;38.50;;;;;;4935042;28;20136;-80
2022/03/04 21:40:25;;;;;;;15.82;6.60;;;23.50;38.90;;;;;;4949144;28;20071;-82
2022/03/04 21:42:57;;;;;;;16.88;6.78;;;22.80;38.70;;;;;;4953764;28;20082;-81
2022/03/04 21:45:26;;;;;;;18.33;6.45;;;23.80;39.00;;;;;;4928972;29;20049;-81
2022/03/04 21:47:55;;;;;;;14.85;6.05;;;22.80;38.50;;;;;;4954502;28;20035;-81
2022/03/04 21:50:27;;;;;;;14.68;6.07;;;24.00;39.20;;;;;;4940336;28;20786;-82
2022/03/04 21:56:27;;;;;;;14.68;6.55;;;22.80;38.40;;;;;;4859331;29;20056;-80
2022/03/04 22:03:21;;;;;;;11.90;5.47;;;22.00;38.00;;;;;;4892947;29;20056;-80
2022/03/04 22:05:52;;;;;;;12.43;5.28;;;22.00;38.60;;;;;;4861621;29;20148;-80
2022/03/04 22:09:04;;;;;;;11.88;5.40;;;24.00;39.20;;;;;;4878133;29;20454;-81
2022/03/04 22:11:30;;;;;;;11.93;4.85;;;22.90;38.40;;;;;;4909084;23;20620;-80
2022/03/04 22:13:56;;;;;;;11.20;5.03;;;22.80;38.70;;;;;;4954447;28;20055;-81
2022/03/04 22:16:58;;;;;;;10.52;5.00;;;22.90;38.40;;;;;;4954773;28;20061;-81
2022/03/04 22:19:25;;;;;;;12.35;4.93;;;23.70;38.70;;;;;;4953817;28;20046;-82
2022/03/04 22:21:53;;;;;;;12.02;5.18;;;23.90;38.80;;;;;;4954911;28;20055;-81
2022/03/04 22:24:21;;;;;;;11.55;5.00;;;22.80;38.30;;;;;;4954519;28;20047;-82
2022/03/04 22:26:49;;;;;;;11.85;4.80;;;22.70;38.20;;;;;;4953615;28;20043;-82
2022/03/04 22:29:15;;;;;;;12.35;4.97;;;22.80;38.20;;;;;;4951106;28;20054;-82
2022/03/04 22:31:48;;;;;;;11.82;4.30;;;22.70;38.10;;;;;;4972337;28;20121;-82
2022/03/04 22:34:14;;;;;;;9.88;4.30;;;22.70;38.10;;;;;;4957350;28;20055;-82
2022/03/04 22:36:42;;;;;;;12.63;4.22;;;22.70;38.10;;;;;;4958194;28;20059;-82
2022/03/04 22:39:08;;;;;;;10.63;4.70;;;22.70;38.10;;;;;;4957191;28;20109;-82
2022/03/04 22:41:34;;;;;;;10.70;4.32;;;22.70;38.10;;;;;;4958262;28;20058;-82
2022/03/04 22:44:03;;;;;;;9.80;4.00;;;22.60;38.00;;;;;;4957888;28;20082;-82
2022/03/04 22:46:28;;;;;;;10.27;4.53;;;22.70;38.10;;;;;;4956873;28;20055;-82
2022/03/04 22:48:57;;;;;;;10.40;4.38;;;22.60;38.10;;;;;;4957859;28;20042;-82
2022/03/04 22:51:53;;;;;;;10.63;3.95;;;22.70;38.10;;;;;;4957807;28;20047;-82
2022/03/04 22:58:19;;;;;;;10.90;4.25;;;23.00;38.30;;;;;;4975136;28;20518;-82
2022/03/04 23:01:45;;;;;;;9.52;3.65;;;22.10;37.80;;;;;;4957042;28;20046;-82
2022/03/04 23:11:26;;;;;;;10.13;3.92;;;22.60;38.10;;;;;;4899329;29;20103;-81
2022/03/04 23:18:43;;;;;;;7.40;3.33;;;22.40;38.00;;;;;;4974823;28;20053;-82
2022/03/04 23:22:01;;;;;;;8.70;3.65;;;22.20;37.90;;;;;;4941001;28;20059;-81
2022/03/04 23:25:18;;;;;;;8.32;3.40;;;22.10;37.90;;;;;;4957180;28;20495;-82
2022/03/04 23:31:37;;;;;;;9.27;3.95;;;22.30;38.00;;;;;;4896078;29;20088;-82
2022/03/04 23:34:04;;;;;;;6.82;2.85;;;21.80;37.90;;;;;;4880308;29;20044;-82
2022/03/04 23:36:34;;;;;;;7.95;3.53;;;23.70;38.90;;;;;;4972752;28;20078;-82
2022/03/04 23:39:06;;;;;;;7.47;3.50;;;22.40;38.20;;;;;;4957147;28;20038;-82
2022/03/04 23:41:34;;;;;;;8.57;3.08;;;22.30;38.20;;;;;;4954849;28;20101;-82
2022/03/04 23:44:02;;;;;;;9.77;3.35;;;22.20;38.20;;;;;;4955539;28;20402;-81
2022/03/04 23:46:31;;;;;;;6.88;2.60;;;23.10;38.60;;;;;;4957346;28;20055;-82
2022/03/04 23:48:57;;;;;;;7.65;3.10;;;22.30;38.20;;;;;;4956894;28;20109;-81
2022/03/04 23:51:23;;;;;;;6.63;3.20;;;22.30;38.20;;;;;;4956569;28;20051;-81
2022/03/04 23:53:51;;;;;;;7.30;2.50;;;22.30;38.20;;;;;;4956994;28;20049;-82
2022/03/04 23:56:17;;;;;;;6.95;2.80;;;22.30;38.30;;;;;;4940776;28;20047;-81
2022/03/04 23:58:47;;;;;;;7.13;3.20;;;22.20;38.20;;;;;;4940014;28;20061;-81
